Terminal Aerodrome Forecast
Issued by NWS Midland/Odessa, TX

Home | Current Version | Previous Version | Text Only | Print | Product List | Glossary On
Versions: 1 2 3 4 5 6 7 8 9 10 11 12 13 14 15 16
513
FTUS44 KMAF 222320
TAFMAF
TAF
KMAF 222320Z 2300/2324 16010KT P6SM SCT050 BKN150
      TEMPO 2300/2302 VRB20G30KT 5SM +TSRA SCT050CB=

USA.gov is the U.S. government's official web portal to all federal, state and local government web resources and services.